Terminal Aerodrome Forecast
Issued by NWS

Home | Current Version | Previous Version | Text Only | Print | Product List | Glossary On
Versions: 1 2 3 4 5 6 7 8 9 10 11 12 13 14 15
000
FTUS42 KMLB 230520
TAFTIX
TAF
KTIX 230520Z 2306/2406 35004KT P6SM FEW030 BKN250
     FM231400 05011KT P6SM SCT030
     FM231800 07013G20KT P6SM SCT035 SCT050
     FM240000 07012KT P6SM BKN060
     FM240200 06007KT P6SM BKN060
      AMD NOT SKED TIL 231200=

USA.gov is the U.S. government's official web portal to all federal, state and local government web resources and services.